COR8 weather

Orangeville/Rosehill Airfield
Ontario, Canada

Public forecast

Using degrees Celsius for public forecast. Weather courtesy of forecast.io.

Closest aviation weather report (METAR) to Orangeville/Rosehill Airfield

Closest report is Lester B. Pearson International Airport, 21.7 nm (40.3 km) SE. Retrieved 2019/10/17 01:00 UTC (20 minutes ago):

CYYZ 170100Z 18008KT 15SM BKN050 07/05 A2948 RMK SC5 SLP986

Closest aviation forecast (TAF) to Orangeville/Rosehill Airfield

Closest forecast is Lester B. Pearson International Airport, 21.7 nm (40.3 km) SE. Retrieved 2019-10-17 00:42 UTC (38 minutes ago):

TAF CYYZ 162339Z 1700/1806 22005KT P6SM SCT025 OVC050 TEMPO 1700/1702 BKN015 OVC030 FM170200 25005KT P6SM BKN015 OVC030 TEMPO 1702/1706 6SM -SHRA BR SCT006 OVC012 PROB30 1702/1706 2SM BR OVC006 FM170600 31015KT P6SM OVC015 TEMPO 1706/1709 P6SM -SHRA FM170900 31015G25KT P6SM OVC015 TEMPO 1709/1720 P6SM -SHRA BECMG 1710/1712 33020G35KT FM172300 33015G30KT P6SM BKN015 BECMG 1801/1803 34012G22KT RMK NXT FCST BY 170300Z